createdAt,value
2017-06-12T00:02:14.224Z,19.00
2017-06-12T00:04:42.614Z,18.90
2017-06-12T00:07:11.772Z,18.80
2017-06-12T01:01:17.970Z,18.10
2017-06-12T01:03:46.417Z,18.00
2017-06-12T01:06:14.806Z,18.00
2017-06-12T01:08:43.210Z,17.80
2017-06-12T01:11:11.586Z,17.80
2017-06-12T01:13:39.976Z,17.70
2017-06-12T01:16:08.376Z,17.60
2017-06-12T01:18:37.517Z,17.50
2017-06-12T01:21:05.930Z,17.40
2017-06-12T01:23:34.313Z,17.50
2017-06-12T01:26:02.698Z,17.40
2017-06-12T01:28:31.087Z,17.40
2017-06-12T01:31:00.242Z,17.40
2017-06-12T01:33:28.645Z,17.40
2017-06-12T01:35:57.795Z,17.30
2017-06-12T01:38:26.188Z,17.30
2017-06-12T01:40:54.595Z,17.30
2017-06-12T01:43:22.968Z,17.20
2017-06-12T01:45:51.415Z,17.20
2017-06-12T01:48:19.446Z,17.00
2017-06-12T01:50:47.831Z,17.00
2017-06-12T01:53:16.254Z,16.90
2017-06-12T01:55:44.628Z,16.90
2017-06-12T01:58:13.034Z,17.00
2017-06-12T02:00:41.417Z,16.80
2017-06-12T02:03:10.662Z,16.70
2017-06-12T02:05:39.066Z,16.70
2017-06-12T02:08:07.476Z,16.70
2017-06-12T02:10:36.660Z,16.80
2017-06-12T02:13:05.050Z,16.70
2017-06-12T02:15:34.246Z,16.80
2017-06-12T02:18:03.406Z,16.60
2017-06-12T02:20:31.794Z,16.50
2017-06-12T02:23:00.198Z,16.50
2017-06-12T02:25:29.356Z,16.40
2017-06-12T02:27:57.741Z,16.40
2017-06-12T02:30:26.141Z,16.30
2017-06-12T02:32:55.316Z,16.00
2017-06-12T02:35:23.731Z,16.00
2017-06-12T02:37:52.889Z,15.80
2017-06-12T02:40:21.267Z,15.80
2017-06-12T02:42:49.686Z,15.80
2017-06-12T02:45:18.073Z,15.70
2017-06-12T02:47:46.481Z,15.80
2017-06-12T02:50:14.853Z,15.70
2017-06-12T02:52:43.236Z,15.60
2017-06-12T02:55:11.641Z,15.60
2017-06-12T02:57:40.020Z,15.60
2017-06-12T03:00:08.435Z,15.60
2017-06-12T03:02:37.582Z,15.60
2017-06-12T03:05:05.955Z,15.60
2017-06-12T03:07:34.360Z,15.70
2017-06-12T03:10:14.030Z,15.60
2017-06-12T03:12:42.435Z,15.60
2017-06-12T03:15:10.825Z,15.50
2017-06-12T03:17:39.212Z,15.40
2017-06-12T03:20:07.603Z,15.30
2017-06-12T03:22:35.991Z,15.30
2017-06-12T03:25:04.401Z,15.30
2017-06-12T03:27:33.545Z,15.10
2017-06-12T03:30:01.924Z,15.10
2017-06-12T03:32:30.314Z,15.00
2017-06-12T03:34:58.719Z,15.10
2017-06-12T03:37:27.873Z,15.00
2017-06-12T03:39:56.261Z,15.00
2017-06-12T03:42:24.651Z,15.00
2017-06-12T03:44:53.066Z,14.90
2017-06-12T03:47:21.448Z,15.00
2017-06-12T03:49:49.849Z,15.10
2017-06-12T03:52:18.328Z,15.10
2017-06-12T03:54:46.718Z,15.10
2017-06-12T03:57:15.184Z,15.10
2017-06-12T03:59:43.566Z,15.20
2017-06-12T04:02:11.994Z,15.20
2017-06-12T04:04:40.380Z,15.20
2017-06-12T04:07:09.550Z,14.80
2017-06-12T04:09:37.940Z,14.80
2017-06-12T04:12:06.345Z,14.90
2017-06-12T04:14:35.513Z,15.00
2017-06-12T04:17:03.902Z,15.00
2017-06-12T04:19:33.056Z,15.20
2017-06-12T04:22:01.454Z,15.20
2017-06-12T04:24:29.835Z,15.30
2017-06-12T04:26:58.240Z,15.20
2017-06-12T04:29:27.401Z,14.90
2017-06-12T04:31:55.781Z,14.90
2017-06-12T04:34:24.171Z,15.00
2017-06-12T04:36:52.561Z,15.30
2017-06-12T04:39:20.968Z,15.30
2017-06-12T04:41:49.355Z,15.20
2017-06-12T04:44:17.745Z,15.00
2017-06-12T04:46:46.129Z,15.10
2017-06-12T04:49:14.523Z,15.30
2017-06-12T04:51:42.937Z,15.50
2017-06-12T04:54:12.159Z,15.30
2017-06-12T04:56:40.560Z,15.20
2017-06-12T04:59:08.953Z,15.20
2017-06-12T05:01:37.335Z,15.40
2017-06-12T05:04:05.746Z,15.50
2017-06-12T05:06:34.899Z,15.60
2017-06-12T05:09:02.747Z,15.60
2017-06-12T05:11:31.155Z,15.40
2017-06-12T05:13:59.542Z,15.30
2017-06-12T05:16:27.961Z,15.10
2017-06-12T05:18:56.345Z,15.20
2017-06-12T05:21:24.739Z,15.30
2017-06-12T05:23:53.153Z,15.40
2017-06-12T05:26:21.547Z,15.20
2017-06-12T05:28:49.937Z,15.10
2017-06-12T05:31:19.091Z,15.20
2017-06-12T05:33:47.484Z,15.20
2017-06-12T05:36:15.885Z,15.30
2017-06-12T05:38:44.277Z,15.30
2017-06-12T05:41:13.473Z,15.20
2017-06-12T05:43:41.867Z,15.20
2017-06-12T05:46:10.252Z,14.80
2017-06-12T05:48:38.642Z,14.30
2017-06-12T05:51:07.032Z,14.30
2017-06-12T05:53:35.480Z,14.20
2017-06-12T05:56:03.853Z,14.10
2017-06-12T05:58:32.253Z,14.00
2017-06-12T06:01:00.677Z,14.00
2017-06-12T06:03:29.077Z,14.10
2017-06-12T06:05:58.259Z,14.10
2017-06-12T06:08:26.635Z,14.10
2017-06-12T06:10:55.036Z,14.00
2017-06-12T06:13:23.442Z,13.90
2017-06-12T06:15:51.830Z,13.90
2017-06-12T06:18:20.254Z,14.00
2017-06-12T06:20:49.407Z,13.90
2017-06-12T06:23:17.785Z,13.90
2017-06-12T06:25:46.184Z,14.00
2017-06-12T06:28:14.566Z,14.20
2017-06-12T06:30:42.968Z,14.40
2017-06-12T06:33:12.137Z,14.60
2017-06-12T06:35:40.514Z,14.60
2017-06-12T06:38:08.902Z,14.90
2017-06-12T06:40:37.290Z,15.30
2017-06-12T06:43:06.460Z,15.70
2017-06-12T06:45:34.837Z,15.60
2017-06-12T06:48:03.225Z,15.80
2017-06-12T06:50:31.628Z,15.80
2017-06-12T06:53:00.797Z,15.80
2017-06-12T06:55:29.175Z,15.80
2017-06-12T06:57:57.560Z,15.90
2017-06-12T07:00:25.949Z,16.00
2017-06-12T07:02:54.333Z,16.10
2017-06-12T07:05:23.507Z,16.10
2017-06-12T07:07:51.907Z,16.10
2017-06-12T07:10:21.106Z,16.30
2017-06-12T07:12:50.263Z,16.60
2017-06-12T07:15:18.641Z,16.50
2017-06-12T07:17:47.039Z,16.80
2017-06-12T07:20:15.412Z,17.10
2017-06-12T07:22:43.810Z,17.20
2017-06-12T07:25:12.198Z,17.50
2017-06-12T07:27:41.351Z,16.80
2017-06-12T07:30:09.751Z,16.80
2017-06-12T07:32:38.128Z,16.70
2017-06-12T07:35:06.532Z,17.10
2017-06-12T07:37:35.688Z,16.70
2017-06-12T07:40:04.077Z,16.70
2017-06-12T07:42:32.475Z,16.70
2017-06-12T07:45:01.636Z,16.60
2017-06-12T07:47:30.034Z,16.60
2017-06-12T07:49:58.413Z,16.70
2017-06-12T07:52:26.785Z,16.90
2017-06-12T07:54:55.180Z,16.90
2017-06-12T07:57:24.344Z,16.10
2017-06-12T07:59:52.749Z,16.10
2017-06-12T08:02:21.183Z,16.30
2017-06-12T08:04:49.582Z,16.90
2017-06-12T08:07:17.811Z,17.00
2017-06-12T08:09:46.197Z,17.00
2017-06-12T08:12:14.608Z,17.00
2017-06-12T08:14:42.993Z,17.50
2017-06-12T08:17:11.381Z,17.80
2017-06-12T08:19:39.777Z,17.70
2017-06-12T08:22:08.941Z,18.00
2017-06-12T08:24:38.156Z,17.70
2017-06-12T08:27:06.545Z,17.60
2017-06-12T08:29:34.937Z,17.70
2017-06-12T08:32:04.123Z,17.70
2017-06-12T08:34:32.508Z,17.70
2017-06-12T08:37:00.950Z,18.10
2017-06-12T08:39:29.332Z,17.80
2017-06-12T08:41:57.916Z,17.80
2017-06-12T08:44:26.306Z,17.70
2017-06-12T08:46:54.693Z,17.60
2017-06-12T08:49:23.098Z,17.70
2017-06-12T08:51:51.487Z,17.70
2017-06-12T08:54:19.889Z,17.80
2017-06-12T08:56:48.294Z,18.00
2017-06-12T08:59:16.712Z,17.40
2017-06-12T09:01:45.117Z,17.40
2017-06-12T09:04:13.536Z,17.60
2017-06-12T09:06:41.925Z,18.10
2017-06-12T09:09:10.329Z,18.30
2017-06-12T09:11:38.713Z,18.30
2017-06-12T09:14:07.131Z,18.80
2017-06-12T09:16:35.523Z,18.80
2017-06-12T09:19:03.901Z,18.50
2017-06-12T09:21:32.306Z,18.50
2017-06-12T09:24:01.461Z,18.70
2017-06-12T09:26:29.857Z,18.70
2017-06-12T09:28:58.247Z,18.50
2017-06-12T09:31:27.406Z,19.20
2017-06-12T09:33:55.810Z,19.20
2017-06-12T09:36:24.199Z,19.10
2017-06-12T09:38:52.601Z,19.10
2017-06-12T09:41:21.077Z,19.30
2017-06-12T09:43:49.487Z,19.30
2017-06-12T09:46:17.905Z,19.30
2017-06-12T09:48:46.308Z,19.10
2017-06-12T09:51:15.476Z,19.00
2017-06-12T09:53:43.867Z,18.90
2017-06-12T09:56:14.671Z,18.50
2017-06-12T09:58:43.071Z,18.40
2017-06-12T10:01:12.231Z,18.80
2017-06-12T10:03:40.620Z,18.70
2017-06-12T10:06:08.995Z,18.90
2017-06-12T10:08:37.411Z,18.60
2017-06-12T10:11:05.800Z,18.30
2017-06-12T10:13:34.954Z,18.90
2017-06-12T10:16:03.344Z,18.90
2017-06-12T10:18:31.757Z,19.50
2017-06-12T10:21:00.180Z,19.70
2017-06-12T10:23:28.570Z,19.60
2017-06-12T10:25:56.969Z,19.30
2017-06-12T10:28:25.365Z,19.10
2017-06-12T10:30:53.770Z,19.30
2017-06-12T10:33:22.185Z,19.20
2017-06-12T10:35:50.589Z,19.00
2017-06-12T10:38:19.760Z,19.60
2017-06-12T10:40:48.148Z,19.60
2017-06-12T10:43:16.536Z,20.30
2017-06-12T10:45:44.920Z,20.70
2017-06-12T10:48:14.080Z,20.00
2017-06-12T10:50:42.468Z,19.90
2017-06-12T10:53:10.872Z,20.50
2017-06-12T10:55:39.260Z,21.00
2017-06-12T10:58:08.445Z,21.60
2017-06-12T11:00:36.829Z,21.60
2017-06-12T11:03:05.226Z,21.60
2017-06-12T11:05:34.393Z,20.90
2017-06-12T11:08:02.780Z,20.90
2017-06-12T11:10:31.171Z,20.40
2017-06-12T11:13:00.325Z,20.10
2017-06-12T11:15:28.754Z,20.10
2017-06-12T11:17:57.193Z,20.00
2017-06-12T11:20:25.376Z,20.00
2017-06-12T11:22:53.581Z,20.10
2017-06-12T11:25:27.414Z,20.70
2017-06-12T11:27:58.442Z,20.30
2017-06-12T11:30:26.660Z,20.00
2017-06-12T11:32:55.076Z,20.50
2017-06-12T11:35:24.260Z,19.80
2017-06-12T11:37:53.445Z,19.70
2017-06-12T11:40:21.848Z,19.70
2017-06-12T11:42:49.907Z,19.70
2017-06-12T11:45:19.107Z,19.20
2017-06-12T11:47:48.299Z,19.20
2017-06-12T11:50:17.463Z,19.30
2017-06-12T11:52:45.880Z,19.30
2017-06-12T11:55:14.280Z,19.00
2017-06-12T11:57:42.774Z,18.80
2017-06-12T12:00:11.201Z,18.70
2017-06-12T12:02:39.597Z,18.60
2017-06-12T12:05:08.017Z,18.70
2017-06-12T12:07:36.393Z,18.80
2017-06-12T12:10:04.786Z,18.90
2017-06-12T12:12:33.185Z,19.00
2017-06-12T12:15:01.596Z,19.30
2017-06-12T12:17:30.106Z,19.40
2017-06-12T12:19:58.493Z,19.50
2017-06-12T12:22:26.892Z,19.70
2017-06-12T12:24:55.290Z,19.60
2017-06-12T12:27:23.680Z,19.50
2017-06-12T12:29:52.863Z,19.70
2017-06-12T12:32:21.256Z,19.70
2017-06-12T12:34:50.418Z,20.40
2017-06-12T12:37:18.845Z,20.40
2017-06-12T12:39:47.256Z,20.40
2017-06-12T12:42:15.668Z,19.80
2017-06-12T12:44:44.054Z,19.40
2017-06-12T12:47:12.477Z,19.30
2017-06-12T12:49:40.908Z,19.10
2017-06-12T12:52:09.284Z,19.20
2017-06-12T12:54:37.687Z,19.20
2017-06-12T12:57:06.066Z,19.30
2017-06-12T12:59:35.241Z,19.10
2017-06-12T13:02:03.645Z,19.10
2017-06-12T13:04:32.025Z,19.20
2017-06-12T13:07:00.219Z,19.10
2017-06-12T13:09:28.625Z,18.80
2017-06-12T13:11:57.388Z,18.80
2017-06-12T13:14:25.793Z,18.70
2017-06-12T13:16:54.191Z,18.60
2017-06-12T13:19:22.572Z,18.70
2017-06-12T13:21:50.960Z,19.00
2017-06-12T13:24:20.143Z,19.00
2017-06-12T13:26:48.536Z,19.00
2017-06-12T13:29:17.358Z,19.20
2017-06-12T13:31:45.838Z,19.30
2017-06-12T13:34:14.243Z,19.20
2017-06-12T13:36:42.634Z,19.20
2017-06-12T13:39:11.068Z,18.90
2017-06-12T13:41:39.450Z,18.80
2017-06-12T13:44:07.846Z,18.80
2017-06-12T13:46:36.235Z,18.80
2017-06-12T13:49:04.624Z,18.90
2017-06-12T13:51:33.045Z,19.10
2017-06-12T13:54:01.432Z,19.20
2017-06-12T13:56:29.820Z,19.00
2017-06-12T13:58:58.240Z,19.10
2017-06-12T14:01:26.618Z,19.20
2017-06-12T14:03:55.051Z,19.50
2017-06-12T14:06:23.468Z,19.50
2017-06-12T14:08:51.867Z,19.70
2017-06-12T14:11:20.306Z,19.80
2017-06-12T14:13:48.742Z,20.00
2017-06-12T14:16:17.190Z,20.00
2017-06-12T14:18:45.565Z,19.90
2017-06-12T14:21:13.955Z,19.70
2017-06-12T14:23:42.360Z,19.50
2017-06-12T14:26:11.516Z,19.00
2017-06-12T14:28:39.931Z,19.00
2017-06-12T14:31:08.596Z,18.80
2017-06-12T14:33:36.999Z,18.70
2017-06-12T14:36:06.165Z,18.80
2017-06-12T14:38:34.555Z,18.80
2017-06-12T14:41:03.726Z,18.60
2017-06-12T14:43:32.132Z,18.60
2017-06-12T14:46:01.323Z,18.30
2017-06-12T14:48:29.721Z,18.30
2017-06-12T14:50:58.860Z,18.60
2017-06-12T14:53:27.271Z,18.60
2017-06-12T14:55:55.669Z,18.60
2017-06-12T14:58:24.819Z,18.60
2017-06-12T15:00:53.219Z,18.60
2017-06-12T15:03:21.612Z,18.40
2017-06-12T15:05:50.777Z,18.70
2017-06-12T15:08:19.171Z,18.60
2017-06-12T15:10:47.562Z,18.70
2017-06-12T15:13:16.740Z,18.30
2017-06-12T15:15:45.135Z,18.30
2017-06-12T15:18:13.585Z,18.40
2017-06-12T15:20:41.977Z,18.50
2017-06-12T15:23:10.366Z,18.60
2017-06-12T15:25:38.766Z,18.70
2017-06-12T15:28:07.921Z,18.30
2017-06-12T15:30:36.325Z,18.30
2017-06-12T15:33:05.480Z,18.10
2017-06-12T15:35:33.869Z,18.10
2017-06-12T15:38:02.333Z,18.00
2017-06-12T15:40:30.725Z,18.20
2017-06-12T15:42:59.141Z,18.50
2017-06-12T15:45:28.296Z,18.60
2017-06-12T15:47:56.670Z,18.60
2017-06-12T15:50:25.119Z,18.60
2017-06-12T15:52:53.524Z,18.50
2017-06-12T15:55:21.938Z,18.50
2017-06-12T15:57:50.317Z,18.60
2017-06-12T16:00:18.705Z,18.60
2017-06-12T16:02:47.878Z,18.70
2017-06-12T16:05:16.267Z,18.70
2017-06-12T16:07:44.668Z,18.80
2017-06-12T16:10:13.833Z,18.80
2017-06-12T16:12:42.237Z,18.80
2017-06-12T16:15:11.466Z,18.60
2017-06-12T16:17:39.846Z,18.60
2017-06-12T16:20:08.252Z,18.30
2017-06-12T16:22:36.640Z,18.40
2017-06-12T16:25:05.041Z,18.40
2017-06-12T16:27:34.212Z,18.60
2017-06-12T16:30:02.647Z,18.60
2017-06-12T16:32:31.066Z,18.40
2017-06-12T16:34:59.450Z,18.40
2017-06-12T16:37:27.829Z,18.10
2017-06-12T16:39:56.274Z,18.10
2017-06-12T16:42:24.671Z,18.10
2017-06-12T16:44:53.073Z,18.10
2017-06-12T16:47:21.464Z,17.80
2017-06-12T16:49:49.881Z,17.80
2017-06-12T16:52:18.361Z,17.80
2017-06-12T16:54:46.743Z,18.00
2017-06-12T16:57:15.169Z,18.00
2017-06-12T16:59:43.556Z,18.00
2017-06-12T17:02:11.927Z,17.90
2017-06-12T17:04:40.380Z,17.90
2017-06-12T17:07:08.767Z,18.00
2017-06-12T17:09:37.258Z,18.10
2017-06-12T17:12:05.651Z,18.20
2017-06-12T17:14:34.057Z,18.00
2017-06-12T17:17:03.225Z,18.10
2017-06-12T17:19:31.618Z,18.10
2017-06-12T17:22:00.033Z,18.10
2017-06-12T17:24:28.453Z,18.10
2017-06-12T17:26:56.862Z,18.00
2017-06-12T17:29:26.051Z,18.00
2017-06-12T17:31:55.213Z,17.90
2017-06-12T17:34:23.608Z,17.90
2017-06-12T17:36:52.005Z,17.80
2017-06-12T17:39:21.158Z,17.70
2017-06-12T17:41:49.563Z,17.60
2017-06-12T17:44:17.946Z,17.60
2017-06-12T17:46:47.138Z,17.50
2017-06-12T17:49:15.512Z,17.50
2017-06-12T17:51:43.882Z,17.50
2017-06-12T17:54:12.301Z,17.30
2017-06-12T17:56:40.705Z,17.30
2017-06-12T17:59:09.105Z,17.30
2017-06-12T18:01:37.517Z,17.50
2017-06-12T18:04:06.489Z,17.40
2017-06-12T18:06:34.909Z,17.40
2017-06-12T18:09:03.112Z,17.30
2017-06-12T18:11:31.522Z,17.20
2017-06-12T18:13:59.895Z,17.10
2017-06-12T18:16:28.346Z,17.10
2017-06-12T18:18:56.749Z,17.10
2017-06-12T18:21:25.154Z,17.20
2017-06-12T18:23:53.557Z,17.10
2017-06-12T18:26:21.946Z,17.00
2017-06-12T18:28:50.332Z,16.90
2017-06-12T18:31:18.741Z,17.00
2017-06-12T18:33:47.147Z,17.00
2017-06-12T18:36:15.556Z,17.00
2017-06-12T18:38:43.954Z,17.10
2017-06-12T18:41:12.326Z,17.00
2017-06-12T18:43:40.744Z,16.90
2017-06-12T18:46:09.134Z,16.80
2017-06-12T18:48:37.552Z,16.90
2017-06-12T18:51:05.957Z,16.90
2017-06-12T18:53:34.331Z,16.90
2017-06-12T18:56:02.805Z,16.90
2017-06-12T18:58:31.202Z,16.80
2017-06-12T19:00:59.606Z,16.80
2017-06-12T19:03:27.994Z,16.70
2017-06-12T19:05:57.178Z,16.60
2017-06-12T19:08:26.362Z,16.50
2017-06-12T19:10:54.764Z,16.50
2017-06-12T19:13:23.920Z,16.50
2017-06-12T19:15:52.308Z,16.50
2017-06-12T19:18:20.757Z,16.50
2017-06-12T19:20:49.161Z,16.50
2017-06-12T19:23:17.550Z,16.40
2017-06-12T19:25:45.953Z,16.30
2017-06-12T19:28:15.108Z,16.30
2017-06-12T19:30:43.499Z,16.30
2017-06-12T19:33:11.904Z,16.20
2017-06-12T19:35:41.065Z,16.30
2017-06-12T19:38:09.455Z,16.20
2017-06-12T19:40:37.853Z,16.20
2017-06-12T19:43:06.265Z,16.20
2017-06-12T19:45:34.672Z,16.20
2017-06-12T19:48:03.105Z,16.30
2017-06-12T19:50:32.315Z,16.20
2017-06-12T19:53:00.733Z,16.20
2017-06-12T19:55:29.142Z,16.30
2017-06-12T19:57:57.562Z,16.30
2017-06-12T20:00:25.960Z,16.30
2017-06-12T20:02:54.341Z,16.30
2017-06-12T20:05:22.760Z,16.40
2017-06-12T20:07:51.148Z,16.40
2017-06-12T20:10:20.321Z,16.20
2017-06-12T20:12:48.706Z,16.20
2017-06-12T20:15:17.874Z,16.20
2017-06-12T20:17:46.265Z,16.20
2017-06-12T20:20:14.669Z,16.20
2017-06-12T20:22:43.868Z,16.20
2017-06-12T20:25:13.024Z,16.10
2017-06-12T20:27:41.407Z,16.10
2017-06-12T20:30:09.794Z,16.10
2017-06-12T20:32:38.184Z,16.10
2017-06-12T20:35:06.719Z,16.10
2017-06-12T20:37:35.117Z,16.10
2017-06-12T20:40:03.572Z,16.10
2017-06-12T20:42:31.986Z,16.10
2017-06-12T20:45:00.396Z,16.10
2017-06-12T20:47:28.818Z,16.10
2017-06-12T20:49:57.233Z,16.10
2017-06-12T20:52:25.621Z,16.00
2017-06-12T20:54:54.012Z,16.00
2017-06-12T20:57:23.168Z,16.00
2017-06-12T20:59:51.610Z,15.90
2017-06-12T21:02:20.001Z,15.90
2017-06-12T21:04:48.394Z,15.90
2017-06-12T21:07:16.783Z,15.80
2017-06-12T21:09:45.173Z,15.90
2017-06-12T21:12:13.579Z,15.90
2017-06-12T21:14:42.742Z,15.70
2017-06-12T21:17:11.916Z,15.80
2017-06-12T21:19:40.321Z,15.80
2017-06-12T21:22:08.711Z,15.80
2017-06-12T21:24:37.117Z,15.80
2017-06-12T21:27:05.505Z,15.80
2017-06-12T21:29:33.924Z,15.80
2017-06-12T21:32:02.327Z,15.80
2017-06-12T21:34:30.717Z,15.90
2017-06-12T21:36:59.900Z,15.80
2017-06-12T21:39:28.285Z,15.80
2017-06-12T21:41:57.459Z,15.70
2017-06-12T21:44:25.851Z,15.70
2017-06-12T21:46:54.241Z,15.60
2017-06-12T21:49:22.638Z,15.60
2017-06-12T21:51:51.017Z,15.60
2017-06-12T21:54:19.417Z,15.70
2017-06-12T21:56:47.865Z,15.60
2017-06-12T21:59:16.263Z,15.50
2017-06-12T22:01:44.681Z,15.50
2017-06-12T22:04:13.068Z,15.40
2017-06-12T22:06:41.458Z,15.50
2017-06-12T22:09:09.858Z,15.50
2017-06-12T22:11:39.017Z,15.40
2017-06-12T22:14:07.424Z,15.30
2017-06-12T22:16:36.575Z,15.40
2017-06-12T22:19:04.952Z,15.40
2017-06-12T22:21:33.341Z,15.40
2017-06-12T22:24:01.730Z,15.50
2017-06-12T22:26:30.158Z,15.50
2017-06-12T22:28:58.537Z,15.50
2017-06-12T22:31:26.927Z,15.50
2017-06-12T22:33:55.422Z,15.40
2017-06-12T22:36:23.810Z,15.40
2017-06-12T22:38:52.211Z,15.40
2017-06-12T22:41:20.603Z,15.50
2017-06-12T22:43:49.747Z,15.50
2017-06-12T22:46:18.133Z,15.50
2017-06-12T22:48:46.521Z,15.40
2017-06-12T22:51:14.923Z,15.40
2017-06-12T22:53:43.302Z,15.40
2017-06-12T22:56:11.696Z,15.40
2017-06-12T22:58:40.861Z,15.20
2017-06-12T23:01:09.702Z,15.20
2017-06-12T23:03:38.104Z,15.30
2017-06-12T23:06:06.489Z,15.30
2017-06-12T23:08:34.866Z,15.30
2017-06-12T23:11:03.267Z,15.30
2017-06-12T23:13:31.659Z,15.20
2017-06-12T23:16:00.829Z,15.10
2017-06-12T23:18:29.232Z,15.10
2017-06-12T23:20:58.388Z,15.10
2017-06-12T23:23:26.659Z,15.10
2017-06-12T23:26:00.509Z,15.10
2017-06-12T23:28:28.925Z,15.10
2017-06-12T23:30:57.319Z,15.10
2017-06-12T23:33:25.707Z,15.10
2017-06-12T23:35:54.120Z,15.10
2017-06-12T23:38:22.553Z,15.00
2017-06-12T23:40:50.960Z,15.00
2017-06-12T23:43:19.352Z,14.90
2017-06-12T23:45:47.741Z,14.90
2017-06-12T23:48:16.895Z,14.90
2017-06-12T23:50:45.270Z,14.90
2017-06-12T23:53:13.664Z,14.90
2017-06-12T23:55:42.051Z,14.90
2017-06-12T23:58:10.452Z,15.00
